sensor_id;sensor_type;location;lat;lon;timestamp;P1;durP1;ratioP1;P2;durP2;ratioP2
71513;SDS011;59335;46.652;21.272;2023-04-28T00:02:22;17.80;;;9.27;;
71513;SDS011;59335;46.652;21.272;2023-04-28T00:05:25;17.52;;;9.43;;
71513;SDS011;59335;46.652;21.272;2023-04-28T00:08:28;16.33;;;8.87;;
71513;SDS011;59335;46.652;21.272;2023-04-28T00:11:31;15.60;;;8.82;;
71513;SDS011;59335;46.652;21.272;2023-04-28T00:14:34;15.57;;;9.00;;
71513;SDS011;59335;46.652;21.272;2023-04-28T00:17:37;15.45;;;8.63;;
71513;SDS011;59335;46.652;21.272;2023-04-28T00:20:39;16.40;;;8.73;;
71513;SDS011;59335;46.652;21.272;2023-04-28T00:23:42;17.20;;;8.70;;
71513;SDS011;59335;46.652;21.272;2023-04-28T00:26:44;15.13;;;8.18;;
71513;SDS011;59335;46.652;21.272;2023-04-28T00:29:47;15.10;;;8.70;;
71513;SDS011;59335;46.652;21.272;2023-04-28T00:32:50;15.52;;;8.27;;
71513;SDS011;59335;46.652;21.272;2023-04-28T00:35:59;17.83;;;8.55;;
71513;SDS011;59335;46.652;21.272;2023-04-28T00:39:03;15.80;;;8.17;;
71513;SDS011;59335;46.652;21.272;2023-04-28T00:42:06;15.13;;;8.18;;
71513;SDS011;59335;46.652;21.272;2023-04-28T00:45:08;15.65;;;8.13;;
71513;SDS011;59335;46.652;21.272;2023-04-28T00:48:14;15.63;;;8.20;;
71513;SDS011;59335;46.652;21.272;2023-04-28T00:51:17;16.45;;;8.13;;
71513;SDS011;59335;46.652;21.272;2023-04-28T00:54:20;15.67;;;8.17;;
71513;SDS011;59335;46.652;21.272;2023-04-28T00:57:23;15.05;;;8.18;;
71513;SDS011;59335;46.652;21.272;2023-04-28T01:00:26;13.05;;;7.93;;
71513;SDS011;59335;46.652;21.272;2023-04-28T01:03:30;14.45;;;7.80;;
71513;SDS011;59335;46.652;21.272;2023-04-28T01:06:37;16.90;;;7.57;;
71513;SDS011;59335;46.652;21.272;2023-04-28T01:09:40;16.57;;;7.60;;
71513;SDS011;59335;46.652;21.272;2023-04-28T01:12:43;13.15;;;7.18;;
71513;SDS011;59335;46.652;21.272;2023-04-28T01:15:46;14.93;;;7.85;;
71513;SDS011;59335;46.652;21.272;2023-04-28T01:18:49;14.77;;;7.82;;
71513;SDS011;59335;46.652;21.272;2023-04-28T01:21:51;13.30;;;7.78;;
71513;SDS011;59335;46.652;21.272;2023-04-28T01:24:55;14.27;;;7.23;;
71513;SDS011;59335;46.652;21.272;2023-04-28T01:28:00;14.73;;;7.35;;
71513;SDS011;59335;46.652;21.272;2023-04-28T01:31:03;14.75;;;8.00;;
71513;SDS011;59335;46.652;21.272;2023-04-28T01:34:06;12.85;;;7.25;;
71513;SDS011;59335;46.652;21.272;2023-04-28T01:37:10;15.68;;;7.28;;
71513;SDS011;59335;46.652;21.272;2023-04-28T01:40:13;13.43;;;7.03;;
71513;SDS011;59335;46.652;21.272;2023-04-28T01:43:16;14.02;;;7.13;;
71513;SDS011;59335;46.652;21.272;2023-04-28T01:46:19;15.35;;;7.40;;
71513;SDS011;59335;46.652;21.272;2023-04-28T01:49:22;13.25;;;7.20;;
71513;SDS011;59335;46.652;21.272;2023-04-28T01:52:25;12.15;;;7.10;;
71513;SDS011;59335;46.652;21.272;2023-04-28T01:55:29;12.63;;;6.70;;
71513;SDS011;59335;46.652;21.272;2023-04-28T01:58:32;12.00;;;6.75;;
71513;SDS011;59335;46.652;21.272;2023-04-28T02:01:35;11.38;;;6.43;;
71513;SDS011;59335;46.652;21.272;2023-04-28T02:04:38;13.52;;;6.93;;
71513;SDS011;59335;46.652;21.272;2023-04-28T02:07:41;13.60;;;6.97;;
71513;SDS011;59335;46.652;21.272;2023-04-28T02:10:43;12.13;;;6.63;;
71513;SDS011;59335;46.652;21.272;2023-04-28T02:13:46;12.25;;;7.00;;
71513;SDS011;59335;46.652;21.272;2023-04-28T02:16:49;13.20;;;6.68;;
71513;SDS011;59335;46.652;21.272;2023-04-28T02:19:56;13.13;;;6.95;;
71513;SDS011;59335;46.652;21.272;2023-04-28T02:22:58;13.23;;;7.03;;
71513;SDS011;59335;46.652;21.272;2023-04-28T02:26:01;12.87;;;6.93;;
71513;SDS011;59335;46.652;21.272;2023-04-28T02:29:04;12.20;;;6.78;;
71513;SDS011;59335;46.652;21.272;2023-04-28T02:32:07;11.50;;;6.75;;
71513;SDS011;59335;46.652;21.272;2023-04-28T02:35:10;11.82;;;6.95;;
71513;SDS011;59335;46.652;21.272;2023-04-28T02:38:13;12.35;;;6.57;;
71513;SDS011;59335;46.652;21.272;2023-04-28T02:41:17;11.60;;;7.03;;
71513;SDS011;59335;46.652;21.272;2023-04-28T02:44:20;12.45;;;6.90;;
71513;SDS011;59335;46.652;21.272;2023-04-28T02:47:23;12.02;;;7.10;;
71513;SDS011;59335;46.652;21.272;2023-04-28T02:50:26;12.40;;;6.70;;
71513;SDS011;59335;46.652;21.272;2023-04-28T02:53:28;13.75;;;6.80;;
71513;SDS011;59335;46.652;21.272;2023-04-28T02:56:31;12.73;;;6.77;;
71513;SDS011;59335;46.652;21.272;2023-04-28T02:59:35;12.88;;;6.50;;
71513;SDS011;59335;46.652;21.272;2023-04-28T03:02:38;11.52;;;6.82;;
71513;SDS011;59335;46.652;21.272;2023-04-28T03:05:41;13.38;;;7.13;;
71513;SDS011;59335;46.652;21.272;2023-04-28T03:08:44;14.77;;;7.53;;
71513;SDS011;59335;46.652;21.272;2023-04-28T03:11:47;14.33;;;6.97;;
71513;SDS011;59335;46.652;21.272;2023-04-28T03:14:50;12.68;;;7.10;;
71513;SDS011;59335;46.652;21.272;2023-04-28T03:17:53;14.48;;;7.40;;
71513;SDS011;59335;46.652;21.272;2023-04-28T03:20:55;12.63;;;7.05;;
71513;SDS011;59335;46.652;21.272;2023-04-28T03:24:00;12.65;;;6.70;;
71513;SDS011;59335;46.652;21.272;2023-04-28T03:27:06;13.47;;;6.57;;
71513;SDS011;59335;46.652;21.272;2023-04-28T03:30:11;13.98;;;7.03;;
71513;SDS011;59335;46.652;21.272;2023-04-28T03:33:15;14.93;;;7.07;;
71513;SDS011;59335;46.652;21.272;2023-04-28T03:36:18;12.68;;;7.03;;
71513;SDS011;59335;46.652;21.272;2023-04-28T03:39:21;13.82;;;7.22;;
71513;SDS011;59335;46.652;21.272;2023-04-28T03:42:23;12.00;;;7.10;;
71513;SDS011;59335;46.652;21.272;2023-04-28T03:45:43;14.15;;;7.97;;
71513;SDS011;59335;46.652;21.272;2023-04-28T03:48:46;13.93;;;7.53;;
71513;SDS011;59335;46.652;21.272;2023-04-28T03:51:48;13.50;;;7.10;;
71513;SDS011;59335;46.652;21.272;2023-04-28T03:54:56;13.27;;;7.22;;
71513;SDS011;59335;46.652;21.272;2023-04-28T03:57:59;13.03;;;7.03;;
71513;SDS011;59335;46.652;21.272;2023-04-28T04:01:02;12.45;;;6.65;;
71513;SDS011;59335;46.652;21.272;2023-04-28T04:04:05;12.85;;;6.88;;
71513;SDS011;59335;46.652;21.272;2023-04-28T04:07:08;13.40;;;7.15;;
71513;SDS011;59335;46.652;21.272;2023-04-28T04:10:11;13.90;;;7.38;;
71513;SDS011;59335;46.652;21.272;2023-04-28T04:13:17;14.30;;;7.30;;
71513;SDS011;59335;46.652;21.272;2023-04-28T04:16:19;13.73;;;7.13;;
71513;SDS011;59335;46.652;21.272;2023-04-28T04:19:24;13.77;;;7.70;;
71513;SDS011;59335;46.652;21.272;2023-04-28T04:22:28;13.35;;;7.20;;
71513;SDS011;59335;46.652;21.272;2023-04-28T04:25:31;12.25;;;7.03;;
71513;SDS011;59335;46.652;21.272;2023-04-28T04:28:34;12.97;;;6.97;;
71513;SDS011;59335;46.652;21.272;2023-04-28T04:31:39;14.68;;;7.25;;
71513;SDS011;59335;46.652;21.272;2023-04-28T04:34:42;15.13;;;7.47;;
71513;SDS011;59335;46.652;21.272;2023-04-28T04:37:46;15.13;;;7.20;;
71513;SDS011;59335;46.652;21.272;2023-04-28T04:40:50;13.93;;;6.82;;
71513;SDS011;59335;46.652;21.272;2023-04-28T04:43:53;13.27;;;7.00;;
71513;SDS011;59335;46.652;21.272;2023-04-28T04:47:02;14.45;;;6.80;;
71513;SDS011;59335;46.652;21.272;2023-04-28T04:50:07;13.27;;;6.75;;
71513;SDS011;59335;46.652;21.272;2023-04-28T04:53:10;14.93;;;6.93;;
71513;SDS011;59335;46.652;21.272;2023-04-28T04:56:18;12.73;;;6.55;;
71513;SDS011;59335;46.652;21.272;2023-04-28T04:59:21;13.50;;;7.23;;
71513;SDS011;59335;46.652;21.272;2023-04-28T05:02:32;12.60;;;7.00;;
71513;SDS011;59335;46.652;21.272;2023-04-28T05:05:37;12.50;;;7.13;;
71513;SDS011;59335;46.652;21.272;2023-04-28T05:08:45;12.77;;;6.57;;
71513;SDS011;59335;46.652;21.272;2023-04-28T05:11:48;12.85;;;7.25;;
71513;SDS011;59335;46.652;21.272;2023-04-28T05:14:51;13.60;;;6.37;;
71513;SDS011;59335;46.652;21.272;2023-04-28T05:17:55;12.27;;;6.82;;
71513;SDS011;59335;46.652;21.272;2023-04-28T05:20:58;11.93;;;6.93;;
71513;SDS011;59335;46.652;21.272;2023-04-28T05:24:30;12.48;;;7.00;;
71513;SDS011;59335;46.652;21.272;2023-04-28T05:27:34;13.02;;;7.20;;
71513;SDS011;59335;46.652;21.272;2023-04-28T05:30:40;12.60;;;7.17;;
71513;SDS011;59335;46.652;21.272;2023-04-28T05:33:44;14.15;;;6.85;;
71513;SDS011;59335;46.652;21.272;2023-04-28T05:36:48;14.23;;;6.88;;
71513;SDS011;59335;46.652;21.272;2023-04-28T05:39:52;12.88;;;6.57;;
71513;SDS011;59335;46.652;21.272;2023-04-28T05:42:56;15.85;;;6.70;;
71513;SDS011;59335;46.652;21.272;2023-04-28T05:45:59;13.37;;;6.47;;
71513;SDS011;59335;46.652;21.272;2023-04-28T05:49:06;11.15;;;6.15;;
71513;SDS011;59335;46.652;21.272;2023-04-28T05:52:16;14.63;;;6.22;;
71513;SDS011;59335;46.652;21.272;2023-04-28T05:55:19;15.93;;;6.93;;
71513;SDS011;59335;46.652;21.272;2023-04-28T05:58:22;14.25;;;6.78;;
71513;SDS011;59335;46.652;21.272;2023-04-28T06:01:25;12.47;;;6.30;;
71513;SDS011;59335;46.652;21.272;2023-04-28T06:04:28;17.30;;;6.78;;
71513;SDS011;59335;46.652;21.272;2023-04-28T06:07:39;12.45;;;6.30;;
71513;SDS011;59335;46.652;21.272;2023-04-28T06:10:46;14.00;;;6.95;;
71513;SDS011;59335;46.652;21.272;2023-04-28T06:13:53;12.95;;;6.57;;
71513;SDS011;59335;46.652;21.272;2023-04-28T06:17:00;13.60;;;6.43;;
71513;SDS011;59335;46.652;21.272;2023-04-28T06:20:04;13.15;;;6.18;;
71513;SDS011;59335;46.652;21.272;2023-04-28T06:23:11;14.07;;;7.03;;
71513;SDS011;59335;46.652;21.272;2023-04-28T06:26:19;13.75;;;6.97;;
71513;SDS011;59335;46.652;21.272;2023-04-28T06:29:22;13.02;;;6.55;;
71513;SDS011;59335;46.652;21.272;2023-04-28T06:32:28;12.33;;;6.60;;
71513;SDS011;59335;46.652;21.272;2023-04-28T06:35:34;12.23;;;6.22;;
71513;SDS011;59335;46.652;21.272;2023-04-28T06:38:39;13.27;;;6.82;;
71513;SDS011;59335;46.652;21.272;2023-04-28T06:41:44;14.25;;;6.57;;
71513;SDS011;59335;46.652;21.272;2023-04-28T06:44:50;12.23;;;6.53;;
71513;SDS011;59335;46.652;21.272;2023-04-28T06:47:54;13.43;;;6.77;;
71513;SDS011;59335;46.652;21.272;2023-04-28T06:50:57;16.67;;;8.95;;
71513;SDS011;59335;46.652;21.272;2023-04-28T06:54:02;14.02;;;7.18;;
71513;SDS011;59335;46.652;21.272;2023-04-28T06:57:05;12.20;;;6.85;;
71513;SDS011;59335;46.652;21.272;2023-04-28T07:00:09;12.45;;;6.70;;
71513;SDS011;59335;46.652;21.272;2023-04-28T07:03:12;15.33;;;6.80;;
71513;SDS011;59335;46.652;21.272;2023-04-28T07:06:15;10.82;;;6.20;;
71513;SDS011;59335;46.652;21.272;2023-04-28T07:09:18;15.45;;;6.55;;
71513;SDS011;59335;46.652;21.272;2023-04-28T07:12:21;11.60;;;6.32;;
71513;SDS011;59335;46.652;21.272;2023-04-28T07:15:24;12.73;;;6.75;;
71513;SDS011;59335;46.652;21.272;2023-04-28T07:18:30;13.97;;;6.40;;
71513;SDS011;59335;46.652;21.272;2023-04-28T07:21:32;13.60;;;6.30;;
71513;SDS011;59335;46.652;21.272;2023-04-28T07:24:36;14.27;;;6.38;;
71513;SDS011;59335;46.652;21.272;2023-04-28T07:27:40;14.38;;;6.20;;
71513;SDS011;59335;46.652;21.272;2023-04-28T07:30:43;12.82;;;6.07;;
71513;SDS011;59335;46.652;21.272;2023-04-28T07:33:47;10.83;;;5.93;;
71513;SDS011;59335;46.652;21.272;2023-04-28T07:36:50;12.05;;;5.82;;
71513;SDS011;59335;46.652;21.272;2023-04-28T07:39:55;10.63;;;5.93;;
71513;SDS011;59335;46.652;21.272;2023-04-28T07:43:00;12.27;;;5.80;;
71513;SDS011;59335;46.652;21.272;2023-04-28T07:46:03;11.00;;;5.80;;
71513;SDS011;59335;46.652;21.272;2023-04-28T07:49:06;11.23;;;5.60;;
71513;SDS011;59335;46.652;21.272;2023-04-28T07:52:09;11.27;;;5.90;;
71513;SDS011;59335;46.652;21.272;2023-04-28T07:55:12;12.75;;;5.80;;
71513;SDS011;59335;46.652;21.272;2023-04-28T07:58:20;11.30;;;5.10;;
71513;SDS011;59335;46.652;21.272;2023-04-28T08:01:23;13.35;;;5.35;;
71513;SDS011;59335;46.652;21.272;2023-04-28T08:04:26;11.30;;;4.63;;
71513;SDS011;59335;46.652;21.272;2023-04-28T08:07:29;11.88;;;5.30;;
71513;SDS011;59335;46.652;21.272;2023-04-28T08:10:32;11.23;;;5.35;;
71513;SDS011;59335;46.652;21.272;2023-04-28T08:13:35;10.82;;;5.20;;
71513;SDS011;59335;46.652;21.272;2023-04-28T08:16:38;12.32;;;5.20;;
71513;SDS011;59335;46.652;21.272;2023-04-28T08:19:42;10.83;;;5.27;;
71513;SDS011;59335;46.652;21.272;2023-04-28T08:22:47;10.68;;;5.28;;
71513;SDS011;59335;46.652;21.272;2023-04-28T08:25:50;12.15;;;5.55;;
71513;SDS011;59335;46.652;21.272;2023-04-28T08:28:54;11.23;;;5.15;;
71513;SDS011;59335;46.652;21.272;2023-04-28T08:31:59;12.63;;;5.65;;
71513;SDS011;59335;46.652;21.272;2023-04-28T08:35:09;11.23;;;5.30;;
71513;SDS011;59335;46.652;21.272;2023-04-28T08:38:38;11.43;;;4.88;;
71513;SDS011;59335;46.652;21.272;2023-04-28T08:41:44;11.00;;;4.63;;
71513;SDS011;59335;46.652;21.272;2023-04-28T08:45:39;9.23;;;4.78;;
71513;SDS011;59335;46.652;21.272;2023-04-28T08:48:59;11.90;;;5.05;;
71513;SDS011;59335;46.652;21.272;2023-04-28T08:52:21;11.37;;;5.23;;
71513;SDS011;59335;46.652;21.272;2023-04-28T08:55:26;12.68;;;5.00;;
71513;SDS011;59335;46.652;21.272;2023-04-28T08:58:29;8.45;;;4.85;;
71513;SDS011;59335;46.652;21.272;2023-04-28T09:01:34;11.48;;;5.35;;
71513;SDS011;59335;46.652;21.272;2023-04-28T09:04:37;11.02;;;4.97;;
71513;SDS011;59335;46.652;21.272;2023-04-28T09:07:44;13.23;;;5.20;;
71513;SDS011;59335;46.652;21.272;2023-04-28T09:10:47;13.93;;;5.13;;
71513;SDS011;59335;46.652;21.272;2023-04-28T09:14:14;14.27;;;5.28;;
71513;SDS011;59335;46.652;21.272;2023-04-28T09:17:20;10.02;;;5.03;;
71513;SDS011;59335;46.652;21.272;2023-04-28T09:20:24;13.77;;;5.13;;
71513;SDS011;59335;46.652;21.272;2023-04-28T09:23:29;12.80;;;5.10;;
71513;SDS011;59335;46.652;21.272;2023-04-28T09:26:47;12.18;;;5.10;;
71513;SDS011;59335;46.652;21.272;2023-04-28T09:29:53;11.52;;;5.05;;
71513;SDS011;59335;46.652;21.272;2023-04-28T09:33:05;13.82;;;4.97;;
71513;SDS011;59335;46.652;21.272;2023-04-28T09:36:15;12.32;;;4.65;;
71513;SDS011;59335;46.652;21.272;2023-04-28T09:39:29;14.03;;;5.00;;
71513;SDS011;59335;46.652;21.272;2023-04-28T09:45:48;11.98;;;4.85;;
71513;SDS011;59335;46.652;21.272;2023-04-28T09:48:51;15.23;;;5.32;;
71513;SDS011;59335;46.652;21.272;2023-04-28T09:52:12;12.95;;;4.85;;
71513;SDS011;59335;46.652;21.272;2023-04-28T09:55:15;12.63;;;5.00;;
71513;SDS011;59335;46.652;21.272;2023-04-28T09:58:19;14.68;;;5.35;;
71513;SDS011;59335;46.652;21.272;2023-04-28T10:01:39;17.42;;;5.70;;
71513;SDS011;59335;46.652;21.272;2023-04-28T10:04:50;13.55;;;4.80;;
71513;SDS011;59335;46.652;21.272;2023-04-28T10:07:53;11.10;;;5.00;;
71513;SDS011;59335;46.652;21.272;2023-04-28T10:10:57;9.10;;;4.50;;
71513;SDS011;59335;46.652;21.272;2023-04-28T10:14:01;14.25;;;4.88;;
71513;SDS011;59335;46.652;21.272;2023-04-28T10:20:28;13.93;;;4.53;;
71513;SDS011;59335;46.652;21.272;2023-04-28T10:27:03;12.13;;;5.03;;
71513;SDS011;59335;46.652;21.272;2023-04-28T10:30:16;11.20;;;4.93;;
71513;SDS011;59335;46.652;21.272;2023-04-28T10:33:32;14.13;;;5.55;;
71513;SDS011;59335;46.652;21.272;2023-04-28T10:36:45;14.55;;;4.80;;
71513;SDS011;59335;46.652;21.272;2023-04-28T10:43:36;10.47;;;5.00;;
71513;SDS011;59335;46.652;21.272;2023-04-28T10:47:05;13.98;;;5.20;;
71513;SDS011;59335;46.652;21.272;2023-04-28T10:50:25;17.92;;;5.32;;
71513;SDS011;59335;46.652;21.272;2023-04-28T11:00:28;14.13;;;4.80;;
71513;SDS011;59335;46.652;21.272;2023-04-28T11:07:08;17.30;;;4.55;;
71513;SDS011;59335;46.652;21.272;2023-04-28T11:10:10;11.82;;;4.38;;
71513;SDS011;59335;46.652;21.272;2023-04-28T11:13:24;12.43;;;4.47;;
71513;SDS011;59335;46.652;21.272;2023-04-28T11:16:34;13.33;;;4.00;;
71513;SDS011;59335;46.652;21.272;2023-04-28T11:20:03;9.70;;;4.22;;
71513;SDS011;59335;46.652;21.272;2023-04-28T11:23:07;9.60;;;4.30;;
71513;SDS011;59335;46.652;21.272;2023-04-28T11:26:13;12.35;;;4.10;;
71513;SDS011;59335;46.652;21.272;2023-04-28T11:29:40;12.85;;;4.38;;
71513;SDS011;59335;46.652;21.272;2023-04-28T11:32:43;12.23;;;4.57;;
71513;SDS011;59335;46.652;21.272;2023-04-28T11:35:52;12.93;;;4.00;;
71513;SDS011;59335;46.652;21.272;2023-04-28T11:38:55;12.38;;;5.10;;
71513;SDS011;59335;46.652;21.272;2023-04-28T11:42:00;14.52;;;4.38;;
71513;SDS011;59335;46.652;21.272;2023-04-28T11:45:04;13.23;;;4.07;;
71513;SDS011;59335;46.652;21.272;2023-04-28T11:48:21;10.10;;;4.10;;
71513;SDS011;59335;46.652;21.272;2023-04-28T11:51:33;20.33;;;4.40;;
71513;SDS011;59335;46.652;21.272;2023-04-28T11:54:38;9.13;;;4.28;;
71513;SDS011;59335;46.652;21.272;2023-04-28T11:57:43;17.40;;;4.32;;
71513;SDS011;59335;46.652;21.272;2023-04-28T12:01:04;10.57;;;4.32;;
71513;SDS011;59335;46.652;21.272;2023-04-28T12:04:08;10.07;;;3.77;;
71513;SDS011;59335;46.652;21.272;2023-04-28T12:07:15;10.32;;;4.22;;
71513;SDS011;59335;46.652;21.272;2023-04-28T12:10:19;12.77;;;3.97;;
71513;SDS011;59335;46.652;21.272;2023-04-28T12:13:23;9.90;;;3.88;;
71513;SDS011;59335;46.652;21.272;2023-04-28T12:16:36;9.20;;;3.88;;
71513;SDS011;59335;46.652;21.272;2023-04-28T12:19:43;12.00;;;3.50;;
71513;SDS011;59335;46.652;21.272;2023-04-28T12:22:48;9.50;;;4.03;;
71513;SDS011;59335;46.652;21.272;2023-04-28T12:25:52;9.80;;;3.75;;
71513;SDS011;59335;46.652;21.272;2023-04-28T12:28:55;13.98;;;3.80;;
71513;SDS011;59335;46.652;21.272;2023-04-28T12:31:58;15.00;;;3.80;;
71513;SDS011;59335;46.652;21.272;2023-04-28T12:35:01;11.10;;;3.90;;
71513;SDS011;59335;46.652;21.272;2023-04-28T12:38:04;12.32;;;3.55;;
71513;SDS011;59335;46.652;21.272;2023-04-28T12:41:07;12.80;;;3.95;;
71513;SDS011;59335;46.652;21.272;2023-04-28T12:44:09;11.75;;;3.95;;
71513;SDS011;59335;46.652;21.272;2023-04-28T12:47:12;8.57;;;3.80;;
71513;SDS011;59335;46.652;21.272;2023-04-28T12:50:15;9.20;;;3.60;;
71513;SDS011;59335;46.652;21.272;2023-04-28T12:53:17;9.20;;;3.78;;
71513;SDS011;59335;46.652;21.272;2023-04-28T12:56:20;11.48;;;3.47;;
71513;SDS011;59335;46.652;21.272;2023-04-28T12:59:25;11.18;;;3.85;;
71513;SDS011;59335;46.652;21.272;2023-04-28T13:02:27;10.88;;;3.67;;
71513;SDS011;59335;46.652;21.272;2023-04-28T13:05:31;11.67;;;3.43;;
71513;SDS011;59335;46.652;21.272;2023-04-28T13:08:36;9.70;;;3.65;;
71513;SDS011;59335;46.652;21.272;2023-04-28T13:11:39;10.32;;;3.55;;
71513;SDS011;59335;46.652;21.272;2023-04-28T13:14:43;12.57;;;3.90;;
71513;SDS011;59335;46.652;21.272;2023-04-28T13:17:46;12.60;;;3.70;;
71513;SDS011;59335;46.652;21.272;2023-04-28T13:20:49;12.63;;;3.87;;
71513;SDS011;59335;46.652;21.272;2023-04-28T13:23:52;9.10;;;3.47;;
71513;SDS011;59335;46.652;21.272;2023-04-28T13:26:56;13.23;;;3.70;;
71513;SDS011;59335;46.652;21.272;2023-04-28T13:29:59;11.48;;;3.40;;
71513;SDS011;59335;46.652;21.272;2023-04-28T13:33:02;10.13;;;3.55;;
71513;SDS011;59335;46.652;21.272;2023-04-28T13:36:08;8.30;;;3.17;;
71513;SDS011;59335;46.652;21.272;2023-04-28T13:39:12;9.35;;;3.40;;
71513;SDS011;59335;46.652;21.272;2023-04-28T13:42:16;10.35;;;3.60;;
71513;SDS011;59335;46.652;21.272;2023-04-28T13:45:19;8.82;;;3.78;;
71513;SDS011;59335;46.652;21.272;2023-04-28T13:48:23;13.20;;;3.80;;
71513;SDS011;59335;46.652;21.272;2023-04-28T13:51:29;8.93;;;3.53;;
71513;SDS011;59335;46.652;21.272;2023-04-28T13:54:34;9.50;;;3.53;;
71513;SDS011;59335;46.652;21.272;2023-04-28T13:57:36;12.15;;;3.70;;
71513;SDS011;59335;46.652;21.272;2023-04-28T14:00:39;8.70;;;3.40;;
71513;SDS011;59335;46.652;21.272;2023-04-28T14:03:42;10.75;;;3.65;;
71513;SDS011;59335;46.652;21.272;2023-04-28T14:06:45;10.57;;;3.53;;
71513;SDS011;59335;46.652;21.272;2023-04-28T14:09:48;13.13;;;3.40;;
71513;SDS011;59335;46.652;21.272;2023-04-28T14:12:52;8.02;;;3.25;;
71513;SDS011;59335;46.652;21.272;2023-04-28T14:15:55;10.65;;;3.75;;
71513;SDS011;59335;46.652;21.272;2023-04-28T14:19:00;8.75;;;3.10;;
71513;SDS011;59335;46.652;21.272;2023-04-28T14:22:04;11.37;;;3.40;;
71513;SDS011;59335;46.652;21.272;2023-04-28T14:25:07;9.75;;;3.30;;
71513;SDS011;59335;46.652;21.272;2023-04-28T14:28:14;9.70;;;3.25;;
71513;SDS011;59335;46.652;21.272;2023-04-28T14:31:17;9.30;;;3.10;;
71513;SDS011;59335;46.652;21.272;2023-04-28T14:34:20;11.63;;;3.10;;
71513;SDS011;59335;46.652;21.272;2023-04-28T14:37:23;8.20;;;3.20;;
71513;SDS011;59335;46.652;21.272;2023-04-28T14:40:26;9.02;;;3.00;;
71513;SDS011;59335;46.652;21.272;2023-04-28T14:43:29;10.07;;;3.10;;
71513;SDS011;59335;46.652;21.272;2023-04-28T14:46:32;9.38;;;3.20;;
71513;SDS011;59335;46.652;21.272;2023-04-28T14:49:38;9.75;;;3.90;;
71513;SDS011;59335;46.652;21.272;2023-04-28T14:52:41;9.53;;;3.60;;
71513;SDS011;59335;46.652;21.272;2023-04-28T14:55:44;11.70;;;3.10;;
71513;SDS011;59335;46.652;21.272;2023-04-28T14:58:47;7.88;;;3.40;;
71513;SDS011;59335;46.652;21.272;2023-04-28T15:01:51;11.07;;;3.65;;
71513;SDS011;59335;46.652;21.272;2023-04-28T15:04:54;15.68;;;3.42;;
71513;SDS011;59335;46.652;21.272;2023-04-28T15:07:58;11.70;;;3.63;;
71513;SDS011;59335;46.652;21.272;2023-04-28T15:11:01;12.13;;;3.22;;
71513;SDS011;59335;46.652;21.272;2023-04-28T15:14:03;13.98;;;3.45;;
71513;SDS011;59335;46.652;21.272;2023-04-28T15:17:07;10.55;;;3.30;;
71513;SDS011;59335;46.652;21.272;2023-04-28T15:20:11;14.52;;;3.30;;
71513;SDS011;59335;46.652;21.272;2023-04-28T15:23:13;12.27;;;3.13;;
71513;SDS011;59335;46.652;21.272;2023-04-28T15:26:17;9.70;;;3.50;;
71513;SDS011;59335;46.652;21.272;2023-04-28T15:29:19;11.32;;;3.58;;
71513;SDS011;59335;46.652;21.272;2023-04-28T15:32:23;13.25;;;3.33;;
71513;SDS011;59335;46.652;21.272;2023-04-28T15:35:28;14.23;;;3.58;;
71513;SDS011;59335;46.652;21.272;2023-04-28T15:38:31;12.87;;;3.63;;
71513;SDS011;59335;46.652;21.272;2023-04-28T15:41:33;11.23;;;3.25;;
71513;SDS011;59335;46.652;21.272;2023-04-28T15:44:37;14.63;;;3.50;;
71513;SDS011;59335;46.652;21.272;2023-04-28T15:47:42;9.85;;;3.17;;
71513;SDS011;59335;46.652;21.272;2023-04-28T15:50:46;9.27;;;3.22;;
71513;SDS011;59335;46.652;21.272;2023-04-28T15:53:49;8.93;;;3.30;;
71513;SDS011;59335;46.652;21.272;2023-04-28T15:56:52;11.82;;;3.08;;
71513;SDS011;59335;46.652;21.272;2023-04-28T15:59:55;11.98;;;3.45;;
71513;SDS011;59335;46.652;21.272;2023-04-28T16:02:58;10.15;;;2.90;;
71513;SDS011;59335;46.652;21.272;2023-04-28T16:06:02;12.55;;;3.63;;
71513;SDS011;59335;46.652;21.272;2023-04-28T16:09:05;9.73;;;3.43;;
71513;SDS011;59335;46.652;21.272;2023-04-28T16:12:08;12.30;;;3.03;;
71513;SDS011;59335;46.652;21.272;2023-04-28T16:15:11;14.02;;;3.38;;
71513;SDS011;59335;46.652;21.272;2023-04-28T16:18:14;13.98;;;3.50;;
71513;SDS011;59335;46.652;21.272;2023-04-28T16:21:17;10.50;;;3.20;;
71513;SDS011;59335;46.652;21.272;2023-04-28T16:24:20;12.50;;;3.17;;
71513;SDS011;59335;46.652;21.272;2023-04-28T16:27:23;9.32;;;2.90;;
71513;SDS011;59335;46.652;21.272;2023-04-28T16:30:26;12.63;;;3.30;;
71513;SDS011;59335;46.652;21.272;2023-04-28T16:33:29;10.18;;;2.85;;
71513;SDS011;59335;46.652;21.272;2023-04-28T16:36:32;8.07;;;3.00;;
71513;SDS011;59335;46.652;21.272;2023-04-28T16:39:35;12.60;;;3.20;;
71513;SDS011;59335;46.652;21.272;2023-04-28T16:42:38;10.90;;;3.15;;
71513;SDS011;59335;46.652;21.272;2023-04-28T16:45:40;12.73;;;3.28;;
71513;SDS011;59335;46.652;21.272;2023-04-28T16:48:44;10.63;;;3.03;;
71513;SDS011;59335;46.652;21.272;2023-04-28T16:51:59;6.57;;;2.72;;
71513;SDS011;59335;46.652;21.272;2023-04-28T16:55:05;9.70;;;2.97;;
71513;SDS011;59335;46.652;21.272;2023-04-28T16:58:08;8.77;;;2.92;;
71513;SDS011;59335;46.652;21.272;2023-04-28T17:01:10;10.63;;;3.08;;
71513;SDS011;59335;46.652;21.272;2023-04-28T17:04:13;8.38;;;2.90;;
71513;SDS011;59335;46.652;21.272;2023-04-28T17:07:16;13.50;;;3.10;;
71513;SDS011;59335;46.652;21.272;2023-04-28T17:10:19;8.53;;;2.77;;
71513;SDS011;59335;46.652;21.272;2023-04-28T17:13:23;12.43;;;3.22;;
71513;SDS011;59335;46.652;21.272;2023-04-28T17:16:29;8.40;;;2.78;;
71513;SDS011;59335;46.652;21.272;2023-04-28T17:19:33;9.98;;;3.08;;
71513;SDS011;59335;46.652;21.272;2023-04-28T17:22:36;7.97;;;2.97;;
71513;SDS011;59335;46.652;21.272;2023-04-28T17:25:40;12.60;;;3.27;;
71513;SDS011;59335;46.652;21.272;2023-04-28T17:28:43;11.50;;;3.10;;
71513;SDS011;59335;46.652;21.272;2023-04-28T17:31:45;9.55;;;3.05;;
71513;SDS011;59335;46.652;21.272;2023-04-28T17:34:48;9.32;;;3.15;;
71513;SDS011;59335;46.652;21.272;2023-04-28T17:37:51;6.93;;;2.70;;
71513;SDS011;59335;46.652;21.272;2023-04-28T17:40:54;7.60;;;3.00;;
71513;SDS011;59335;46.652;21.272;2023-04-28T17:43:57;9.23;;;3.15;;
71513;SDS011;59335;46.652;21.272;2023-04-28T17:46:59;10.13;;;3.30;;
71513;SDS011;59335;46.652;21.272;2023-04-28T17:50:03;8.02;;;3.05;;
71513;SDS011;59335;46.652;21.272;2023-04-28T17:53:06;8.65;;;3.10;;
71513;SDS011;59335;46.652;21.272;2023-04-28T17:56:08;9.00;;;3.17;;
71513;SDS011;59335;46.652;21.272;2023-04-28T17:59:12;9.18;;;2.85;;
71513;SDS011;59335;46.652;21.272;2023-04-28T18:02:16;8.95;;;3.30;;
71513;SDS011;59335;46.652;21.272;2023-04-28T18:05:19;8.30;;;3.10;;
71513;SDS011;59335;46.652;21.272;2023-04-28T18:08:37;8.85;;;3.40;;
71513;SDS011;59335;46.652;21.272;2023-04-28T18:11:40;8.13;;;3.40;;
71513;SDS011;59335;46.652;21.272;2023-04-28T18:14:43;8.50;;;3.10;;
71513;SDS011;59335;46.652;21.272;2023-04-28T18:17:46;10.02;;;3.35;;
71513;SDS011;59335;46.652;21.272;2023-04-28T18:20:55;8.05;;;3.53;;
71513;SDS011;59335;46.652;21.272;2023-04-28T18:23:59;7.00;;;3.22;;
71513;SDS011;59335;46.652;21.272;2023-04-28T18:27:02;10.63;;;3.57;;
71513;SDS011;59335;46.652;21.272;2023-04-28T18:30:05;8.30;;;3.00;;